Lampasas, Lampasas Airport (KLZZ)

NameLampasas Airport
CityLampasas
CountryUnited States
ICAOKLZZ
IATA
Altitude370 m
CoordinatesGoogle Map
Live Air TrafficLiveATC.net
METARKLZZ 191955Z AUTO 08005KT 10SM CLR 30/18 A2988 RMK AO2 T03010181
2019-05-19 19:55:00 Wind: East-Northeast (80°) 2.57 m/s - Visibility: 16093.4 m - Temperature: 30 °C - Dew point: 18 °C - Humidity: 48.6% - Pressure: 1011.85 hPa
Statistics

The table below shows the detailed information of all flights to/from Lampasas, Lampasas Airport (KLZZ).